Time;durP1;ratioP1;P1;durP2;ratioP2;P2;SDS_P1;SDS_P2;PMS_P1;PMS_P2;Temp;Humidity;BMP_temperature;BMP_pressure;BME280_temperature;BME280_humidity;BME280_pressure;Samples;Min_cycle;Max_cycle;Signal;HPM_P1;HPM_P2
2022/04/30 00:02:14;;;;;;;11.82;5.38;;;;;;;6.39;92.35;102777.38;6336703;22;20137;-77
2022/04/30 00:04:42;;;;;;;10.48;5.60;;;;;;;6.30;92.87;102767.56;6329666;22;20011;-77
2022/04/30 00:07:08;;;;;;;8.20;5.55;;;;;;;6.34;92.47;102773.44;6308946;22;20025;-77
2022/04/30 00:09:34;;;;;;;9.25;5.32;;;;;;;6.36;92.54;102769.69;6335502;22;20002;-77
2022/04/30 00:11:59;;;;;;;10.50;5.38;;;;;;;6.32;92.66;102756.78;6331124;22;20002;-77
2022/04/30 00:14:26;;;;;;;7.65;4.90;;;;;;;6.30;92.82;102772.88;6309040;22;20350;-77
2022/04/30 00:16:52;;;;;;;8.23;4.72;;;;;;;6.22;93.38;102762.09;6302815;22;20458;-77
2022/04/30 00:19:20;;;;;;;8.23;4.43;;;;;;;6.15;93.36;102758.31;6308923;22;20011;-77
2022/04/30 00:21:46;;;;;;;10.88;5.22;;;;;;;6.20;93.37;102767.56;6304099;22;20009;-77
2022/04/30 00:24:11;;;;;;;9.13;4.45;;;;;;;6.16;93.38;102763.50;6306789;22;20015;-77
2022/04/30 00:26:36;;;;;;;8.32;4.93;;;;;;;6.11;93.91;102764.91;6336627;22;20072;-77
2022/04/30 00:29:02;;;;;;;8.65;5.05;;;;;;;6.04;95.11;102766.41;6329534;22;20018;-77
2022/04/30 00:31:27;;;;;;;6.97;4.32;;;;;;;6.09;94.34;102764.19;6309048;22;20003;-77
2022/04/30 00:33:53;;;;;;;7.43;4.57;;;;;;;5.97;94.94;102759.97;6322873;22;20019;-77
2022/04/30 00:36:18;;;;;;;9.23;4.80;;;;;;;5.94;95.25;102762.88;6336141;22;20003;-77
2022/04/30 00:38:43;;;;;;;10.35;4.72;;;;;;;5.86;96.10;102756.41;6336270;22;20052;-77
2022/04/30 00:41:10;;;;;;;12.45;4.93;;;;;;;5.82;95.35;102757.66;6329584;22;20038;-77
2022/04/30 00:43:44;;;;;;;8.27;4.72;;;;;;;5.79;95.72;102749.13;6336668;22;20438;-77
2022/04/30 00:46:17;;;;;;;6.90;4.15;;;;;;;5.72;96.83;102755.94;6302110;22;20018;-77
2022/04/30 00:48:43;;;;;;;7.35;4.60;;;;;;;5.67;97.22;102752.84;6336314;22;20092;-77
2022/04/30 00:51:11;;;;;;;8.20;5.25;;;;;;;5.62;97.61;102755.09;6308687;22;20014;-77
2022/04/30 00:53:38;;;;;;;7.30;4.60;;;;;;;5.48;98.30;102743.00;6329565;22;20013;-77
2022/04/30 00:56:08;;;;;;;11.25;5.18;;;;;;;5.46;98.93;102744.94;6336387;22;20006;-77
2022/04/30 00:58:35;;;;;;;10.80;4.85;;;;;;;5.46;98.97;102739.66;6302206;22;20007;-78
2022/04/30 01:01:02;;;;;;;10.60;4.93;;;;;;;5.36;99.49;102736.97;6336312;22;20010;-77
2022/04/30 01:03:28;;;;;;;8.35;5.10;;;;;;;5.31;100.00;102736.53;6302837;22;20829;-77
2022/04/30 01:05:54;;;;;;;8.23;5.05;;;;;;;5.28;100.00;102734.16;6335355;22;20011;-77
2022/04/30 01:08:20;;;;;;;9.13;5.63;;;;;;;5.21;100.00;102730.34;6336242;22;20010;-77
2022/04/30 01:10:46;;;;;;;11.00;5.65;;;;;;;5.20;100.00;102739.25;6329140;22;20014;-77
2022/04/30 01:13:13;;;;;;;9.98;5.00;;;;;;;5.16;100.00;102737.84;6336169;22;20003;-77
2022/04/30 01:15:39;;;;;;;9.02;5.20;;;;;;;5.14;100.00;102737.13;6329303;22;20015;-77
2022/04/30 01:18:08;;;;;;;7.07;4.85;;;;;;;5.15;100.00;102741.47;6336196;22;20041;-77
2022/04/30 01:20:34;;;;;;;6.43;4.82;;;;;;;5.10;100.00;102733.91;6335552;22;20420;-77
2022/04/30 01:23:02;;;;;;;9.90;5.25;;;;;;;5.05;100.00;102735.28;6330108;22;20068;-77
2022/04/30 01:25:30;;;;;;;8.15;4.82;;;;;;;5.01;100.00;102734.69;6308465;22;20014;-77
2022/04/30 01:27:58;;;;;;;11.18;5.40;;;;;;;4.93;100.00;102719.44;6329380;22;20445;-77
2022/04/30 01:30:24;;;;;;;8.90;5.03;;;;;;;4.97;100.00;102735.94;6335747;22;20045;-77
2022/04/30 01:38:17;;;;;;;9.02;4.75;;;;;;;4.92;100.00;102724.88;6331665;22;20045;-77
2022/04/30 01:40:42;;;;;;;8.15;4.40;;;;;;;4.93;100.00;102721.25;6333603;22;20015;-77
2022/04/30 01:43:08;;;;;;;9.05;4.78;;;;;;;4.88;100.00;102724.28;6308181;22;20301;-77
2022/04/30 01:45:34;;;;;;;8.77;5.13;;;;;;;4.81;100.00;102723.13;6328912;22;20060;-77
2022/04/30 01:48:02;;;;;;;7.05;4.82;;;;;;;4.83;100.00;102728.28;6336070;22;20010;-77
2022/04/30 01:50:27;;;;;;;8.43;4.65;;;;;;;4.82;100.00;102723.97;6330311;22;20016;-77
2022/04/30 01:56:14;;;;;;;8.57;5.10;;;;;;;4.73;100.00;102711.50;6337352;22;20339;-77
2022/04/30 01:58:40;;;;;;;9.40;5.50;;;;;;;4.66;100.00;102719.13;6309514;22;20003;-77
2022/04/30 02:01:07;;;;;;;10.82;5.43;;;;;;;4.70;100.00;102719.72;6337240;22;20059;-77
2022/04/30 02:03:32;;;;;;;10.13;5.50;;;;;;;4.59;100.00;102707.34;6330502;22;20095;-77
2022/04/30 02:05:58;;;;;;;9.32;5.30;;;;;;;4.61;100.00;102705.41;6337362;22;20042;-77
2022/04/30 02:08:23;;;;;;;10.02;5.95;;;;;;;4.64;100.00;102708.66;6303185;22;20030;-77
2022/04/30 02:10:49;;;;;;;11.35;5.55;;;;;;;4.60;100.00;102706.38;6336993;22;20014;-77
2022/04/30 02:13:19;;;;;;;9.20;4.95;;;;;;;4.61;100.00;102706.25;6330334;22;20094;-77
2022/04/30 02:15:45;;;;;;;8.77;5.55;;;;;;;4.57;100.00;102712.78;6337275;22;20002;-77
2022/04/30 02:18:14;;;;;;;9.35;5.50;;;;;;;4.51;100.00;102705.34;6337219;22;20014;-77
2022/04/30 02:20:43;;;;;;;12.57;5.57;;;;;;;4.51;100.00;102705.34;6302977;22;20010;-77
2022/04/30 02:23:09;;;;;;;11.65;5.82;;;;;;;4.47;100.00;102711.88;6309446;22;20014;-77
2022/04/30 02:25:35;;;;;;;12.38;6.38;;;;;;;4.38;100.00;102696.75;6330338;22;20097;-77
2022/04/30 02:28:08;;;;;;;10.13;5.45;;;;;;;4.38;100.00;102699.41;6337138;22;20011;-77
2022/04/30 02:30:36;;;;;;;12.05;5.72;;;;;;;4.37;100.00;102703.03;6331500;22;20011;-77
2022/04/30 02:33:05;;;;;;;12.82;6.40;;;;;;;4.39;100.00;102703.75;6336468;22;20078;-77
2022/04/30 02:35:34;;;;;;;13.10;6.25;;;;;;;4.38;100.00;102696.75;6337023;22;20007;-77
2022/04/30 02:38:00;;;;;;;11.88;6.93;;;;;;;4.35;100.00;102699.66;6330262;22;20007;-77
2022/04/30 02:40:28;;;;;;;11.32;6.03;;;;;;;4.31;100.00;102692.91;6337086;22;20340;-77
2022/04/30 02:42:54;;;;;;;12.23;6.20;;;;;;;4.28;100.00;102691.38;6302689;22;20419;-77
2022/04/30 02:45:21;;;;;;;9.43;5.63;;;;;;;4.25;100.00;102691.63;6336976;22;20010;-77
2022/04/30 02:47:52;;;;;;;12.32;6.30;;;;;;;4.19;100.00;102689.50;6334398;22;20003;-77
2022/04/30 02:50:18;;;;;;;9.10;5.25;;;;;;;4.18;100.00;102684.31;6333918;22;20045;-77
2022/04/30 02:52:43;;;;;;;11.32;6.70;;;;;;;4.18;100.00;102686.97;6337074;22;20027;-77
2022/04/30 02:55:10;;;;;;;9.10;5.68;;;;;;;4.18;100.00;102692.28;6330085;22;20245;-77
2022/04/30 02:57:39;;;;;;;10.85;5.95;;;;;;;4.17;100.00;102693.25;6336965;22;20129;-77
2022/04/30 03:00:07;;;;;;;10.60;5.93;;;;;;;4.10;100.00;102674.38;6329614;22;20003;-77
2022/04/30 03:02:32;;;;;;;11.38;7.00;;;;;;;4.14;100.00;102690.84;6337018;22;20034;-77
2022/04/30 03:04:58;;;;;;;10.93;6.15;;;;;;;4.09;100.00;102682.44;6337088;22;20048;-77
2022/04/30 03:07:23;;;;;;;14.82;6.75;;;;;;;4.06;100.00;102680.06;6329959;22;20453;-77
2022/04/30 03:09:49;;;;;;;13.50;6.22;;;;;;;4.08;100.00;102689.56;6336816;22;20006;-77
2022/04/30 03:12:15;;;;;;;10.02;6.43;;;;;;;4.14;100.00;102691.69;6329897;22;20335;-77
2022/04/30 03:14:42;;;;;;;11.55;6.40;;;;;;;4.15;100.00;102688.06;6309257;22;20004;-77
2022/04/30 03:22:36;;;;;;;11.50;6.28;;;;;;;4.17;100.00;102682.66;6335242;22;20022;-77
2022/04/30 03:25:01;;;;;;;11.65;6.90;;;;;;;4.09;100.00;102679.81;6331644;22;20015;-77
2022/04/30 03:27:26;;;;;;;8.95;6.15;;;;;;;4.09;100.00;102678.00;6309186;22;20030;-77
2022/04/30 03:29:52;;;;;;;12.60;6.53;;;;;;;4.04;100.00;102673.06;6329955;22;20017;-77
2022/04/30 03:32:19;;;;;;;10.13;6.07;;;;;;;4.08;100.00;102686.91;6336849;22;20007;-77
2022/04/30 03:34:45;;;;;;;13.55;6.32;;;;;;;4.02;100.00;102664.41;6302289;22;20042;-77
2022/04/30 03:37:10;;;;;;;9.68;5.75;;;;;;;4.04;100.00;102670.41;6309180;22;20332;-77
2022/04/30 03:39:35;;;;;;;10.75;6.65;;;;;;;4.04;100.00;102670.41;6309053;22;20072;-77
2022/04/30 03:42:01;;;;;;;11.15;6.10;;;;;;;4.01;100.00;102670.66;6329908;22;20007;-77
2022/04/30 03:44:26;;;;;;;12.48;6.55;;;;;;;3.97;100.00;102663.09;6309113;22;20331;-77
2022/04/30 03:46:52;;;;;;;9.18;6.45;;;;;;;3.95;100.00;102659.75;6329725;22;20017;-77
2022/04/30 03:49:17;;;;;;;9.82;6.47;;;;;;;3.96;100.00;102661.41;6336660;22;20003;-77
2022/04/30 03:51:42;;;;;;;11.90;6.50;;;;;;;3.99;100.00;102671.75;6334445;22;20038;-77
2022/04/30 03:54:08;;;;;;;13.60;6.35;;;;;;;3.91;100.00;102664.44;6332133;22;20090;-77
2022/04/30 03:56:33;;;;;;;10.63;6.47;;;;;;;3.92;100.00;102670.59;6336670;22;20036;-77
2022/04/30 03:58:58;;;;;;;10.82;6.03;;;;;;;3.77;100.00;102651.53;6329960;22;20382;-77
2022/04/30 04:01:24;;;;;;;12.55;6.38;;;;;;;3.81;100.00;102658.25;6336568;22;20041;-77
2022/04/30 04:03:50;;;;;;;13.32;8.05;;;;;;;3.76;100.00;102664.84;6329703;22;20064;-77
2022/04/30 04:06:16;;;;;;;11.90;6.53;;;;;;;3.69;100.00;102661.84;6336643;22;20003;-77
2022/04/30 04:08:43;;;;;;;14.40;7.38;;;;;;;3.66;100.00;102670.88;6336922;22;20075;-77
2022/04/30 04:11:10;;;;;;;12.73;6.70;;;;;;;3.63;100.00;102665.00;6302286;22;20015;-77
2022/04/30 04:19:09;;;;;;;11.57;6.35;;;;;;;3.66;100.00;102676.19;6336661;22;20018;-77
2022/04/30 04:21:35;;;;;;;10.93;6.50;;;;;;;3.62;100.00;102669.47;6329843;22;20011;-77
2022/04/30 04:26:44;;;;;;;14.85;6.95;;;;;;;3.58;100.00;102664.53;6332490;22;20063;-77
2022/04/30 04:29:10;;;;;;;14.90;8.30;;;;;;;3.61;100.00;102675.72;6333584;22;20332;-77
2022/04/30 04:31:36;;;;;;;13.60;7.32;;;;;;;3.65;100.00;102674.50;6336357;22;20006;-77
2022/04/30 04:34:01;;;;;;;13.13;6.57;;;;;;;3.70;100.00;102659.09;6329458;22;20014;-77
2022/04/30 04:36:26;;;;;;;15.57;7.20;;;;;;;3.85;100.00;102678.19;6308686;22;20033;-77
2022/04/30 04:38:51;;;;;;;13.38;7.35;;;;;;;3.89;100.00;102666.38;6329718;22;20053;-77
2022/04/30 04:41:17;;;;;;;15.27;7.13;;;;;;;3.94;100.00;102672.13;6336380;22;20002;-77
2022/04/30 04:43:42;;;;;;;11.88;6.57;;;;;;;3.99;100.00;102675.25;6336443;22;20038;-77
2022/04/30 04:46:08;;;;;;;9.73;6.20;;;;;;;4.12;100.00;102688.31;6329323;22;20010;-77
2022/04/30 04:48:33;;;;;;;10.98;6.57;;;;;;;4.28;100.00;102686.06;6336342;22;20073;-77
2022/04/30 04:51:00;;;;;;;11.77;6.70;;;;;;;4.47;100.00;102688.03;6302056;22;20006;-77
2022/04/30 04:53:25;;;;;;;13.43;7.18;;;;;;;4.68;100.00;102690.69;6308641;22;20049;-77
2022/04/30 04:55:50;;;;;;;12.90;7.38;;;;;;;4.83;100.00;102696.50;6331538;22;20002;-77
2022/04/30 04:58:16;;;;;;;13.35;8.23;;;;;;;4.96;100.00;102705.09;6334089;22;20014;-77
2022/04/30 05:00:42;;;;;;;13.40;7.40;;;;;;;5.01;100.00;102684.31;6308605;22;20042;-77
2022/04/30 05:03:08;;;;;;;14.70;7.18;;;;;;;5.44;100.00;102693.84;6329643;22;20082;-77
2022/04/30 05:05:35;;;;;;;13.27;7.78;;;;;;;5.89;100.00;102702.22;6335979;22;20107;-77
2022/04/30 05:08:00;;;;;;;12.75;7.57;;;;;;;6.39;100.00;102710.94;6301861;22;20022;-77
2022/04/30 05:10:25;;;;;;;13.20;7.32;;;;;;;6.68;100.00;102707.44;6336084;22;20327;-77
2022/04/30 05:12:51;;;;;;;13.65;7.90;;;;;;;6.70;100.00;102711.63;6308460;22;20335;-77
2022/04/30 05:15:16;;;;;;;12.68;7.50;;;;;;;6.81;100.00;102698.16;6327905;22;20451;-77
2022/04/30 05:17:41;;;;;;;11.77;7.05;;;;;;;7.33;100.00;102703.03;6308371;22;20109;-77
2022/04/30 05:20:07;;;;;;;10.20;7.17;;;;;;;7.94;100.00;102713.06;6329234;22;20454;-77
2022/04/30 05:22:33;;;;;;;16.45;8.05;;;;;;;8.45;97.13;102707.09;6308304;22;20252;-77
2022/04/30 05:24:58;;;;;;;14.02;7.53;;;;;;;8.91;94.62;102708.59;6332927;22;20007;-77
2022/04/30 05:27:24;;;;;;;12.38;7.63;;;;;;;9.08;92.13;102703.34;6335411;22;20347;-77
2022/04/30 05:29:49;;;;;;;12.53;8.17;;;;;;;9.18;91.74;102706.75;6309377;22;20052;-77
2022/04/30 05:32:14;;;;;;;10.82;7.63;;;;;;;9.35;89.84;102707.66;6330673;22;20281;-77
2022/04/30 05:34:40;;;;;;;12.70;7.88;;;;;;;9.32;88.52;102708.84;6337326;22;20041;-77
2022/04/30 05:37:05;;;;;;;12.77;7.63;;;;;;;9.37;89.98;102711.84;6330481;22;20134;-77
2022/04/30 05:39:30;;;;;;;15.02;7.57;;;;;;;9.81;88.47;102709.00;6309677;22;20015;-77
2022/04/30 05:41:56;;;;;;;10.70;7.43;;;;;;;10.22;84.17;102716.13;6337356;22;20370;-78
2022/04/30 05:44:21;;;;;;;12.07;6.82;;;;;;;10.63;84.38;102717.97;6330484;22;20085;-77
2022/04/30 05:46:47;;;;;;;10.90;7.43;;;;;;;11.05;83.20;102705.22;6337176;22;20025;-77
2022/04/30 05:49:12;;;;;;;13.80;8.23;;;;;;;11.47;79.23;102715.63;6303006;22;20019;-77
2022/04/30 05:51:37;;;;;;;17.60;8.13;;;;;;;11.86;78.60;102711.28;6309492;22;20264;-78
2022/04/30 05:54:02;;;;;;;9.73;6.97;;;;;;;12.18;77.23;102712.94;6333023;22;20240;-78
2022/04/30 05:56:28;;;;;;;14.57;7.93;;;;;;;12.66;74.71;102714.38;6307070;22;20332;-77
2022/04/30 05:58:53;;;;;;;11.13;7.30;;;;;;;13.02;72.90;102712.69;6335631;22;20003;-78
2022/04/30 06:01:18;;;;;;;14.37;8.07;;;;;;;13.28;70.82;102714.91;6330244;22;20030;-78
2022/04/30 06:03:44;;;;;;;13.68;7.97;;;;;;;13.48;69.20;102715.19;6337253;22;20237;-78
2022/04/30 06:06:09;;;;;;;10.00;6.80;;;;;;;13.89;66.83;102710.13;6330367;22;20470;-77
2022/04/30 06:08:34;;;;;;;12.48;7.53;;;;;;;14.15;66.05;102717.63;6309360;22;20007;-77
2022/04/30 06:11:01;;;;;;;11.15;7.38;;;;;;;14.59;63.90;102723.88;6309510;22;20316;-78
2022/04/30 06:13:26;;;;;;;11.43;7.70;;;;;;;14.98;61.96;102732.25;6330289;22;20367;-77
2022/04/30 06:15:52;;;;;;;10.48;7.43;;;;;;;15.14;60.28;102723.03;6337113;22;20007;-77
2022/04/30 06:18:17;;;;;;;10.65;7.07;;;;;;;15.24;59.81;102726.19;6303229;22;20059;-78
2022/04/30 06:20:43;;;;;;;9.35;6.65;;;;;;;15.64;59.07;102729.13;6337119;22;20015;-78
2022/04/30 06:23:09;;;;;;;10.90;6.97;;;;;;;15.79;57.62;102722.53;6332588;22;20013;-78
2022/04/30 06:25:37;;;;;;;10.18;6.78;;;;;;;15.75;57.50;102725.84;6334966;22;20105;-78
2022/04/30 06:28:03;;;;;;;16.83;7.63;;;;;;;16.25;56.73;102731.81;6309336;22;20089;-78
2022/04/30 06:30:28;;;;;;;10.75;7.72;;;;;;;16.30;54.62;102726.59;6302829;22;20428;-78
2022/04/30 06:32:54;;;;;;;11.07;7.13;;;;;;;16.39;54.39;102726.19;6309525;22;20136;-78
2022/04/30 06:35:19;;;;;;;14.07;7.40;;;;;;;16.65;53.71;102727.25;6302193;22;20586;-78
2022/04/30 06:37:44;;;;;;;10.65;7.57;;;;;;;17.12;52.30;102728.91;6337147;22;20003;-78
2022/04/30 06:40:10;;;;;;;8.65;6.55;;;;;;;17.72;50.88;102728.75;6336911;22;20049;-78
2022/04/30 06:42:44;;;;;;;10.38;6.35;;;;;;;18.22;50.83;102725.13;6330114;22;20019;-78
2022/04/30 06:45:10;;;;;;;8.93;6.78;;;;;;;18.71;47.89;102726.22;6337032;22;20241;-78
2022/04/30 06:47:36;;;;;;;8.13;6.25;;;;;;;19.14;46.71;102725.41;6302704;22;20007;-78
2022/04/30 06:50:02;;;;;;;8.27;6.75;;;;;;;19.61;44.49;102720.28;6309238;22;20003;-78
2022/04/30 06:52:28;;;;;;;9.13;6.95;;;;;;;19.92;44.54;102727.38;6329866;22;20015;-77
2022/04/30 06:57:37;;;;;;;10.18;6.60;;;;;;;20.79;40.12;102714.94;6337078;22;20018;-78
2022/04/30 07:01:25;;;;;;;7.73;6.27;;;;;;;20.71;41.50;102720.75;6330145;22;20006;-78
2022/04/30 07:02:48;;;;;;;7.47;5.72;;;;;;;21.34;39.64;102728.19;6336643;22;21009;-78
2022/04/30 07:05:14;;;;;;;9.33;6.17;;;;;;;22.10;38.70;102735.16;6330405;22;20038;-78
2022/04/30 07:07:39;;;;;;;8.82;6.18;;;;;;;22.48;37.04;102725.44;6335187;22;20268;-78
2022/04/30 07:10:04;;;;;;;10.37;6.50;;;;;;;22.06;36.87;102714.94;6329791;22;20497;-78
2022/04/30 07:12:30;;;;;;;10.75;6.40;;;;;;;22.39;37.20;102735.94;6336829;22;20275;-78
2022/04/30 07:14:55;;;;;;;7.90;6.20;;;;;;;22.53;36.53;102736.44;6336996;22;20191;-78
2022/04/30 07:17:21;;;;;;;11.43;6.27;;;;;;;22.63;36.61;102733.06;6302755;22;20086;-78
2022/04/30 07:19:46;;;;;;;12.48;6.03;;;;;;;22.62;35.62;102734.16;6336838;22;20704;-78
2022/04/30 07:22:13;;;;;;;7.47;5.97;;;;;;;22.72;35.20;102735.13;6329884;22;20010;-78
2022/04/30 07:24:38;;;;;;;10.70;6.10;;;;;;;22.22;35.80;102725.03;6309097;22;20328;-78
2022/04/30 07:27:05;;;;;;;8.52;5.85;;;;;;;22.38;36.24;102717.13;6303465;22;20038;-78
2022/04/30 07:29:32;;;;;;;15.95;5.68;;;;;;;23.47;33.69;102739.22;6308016;22;20049;-78
2022/04/30 07:31:57;;;;;;;17.25;6.78;;;;;;;24.16;33.61;102731.25;6336805;22;20332;-78
2022/04/30 07:34:23;;;;;;;10.90;5.43;;;;;;;24.62;32.11;102728.94;6329891;22;20027;-79
2022/04/30 07:36:48;;;;;;;10.70;5.90;;;;;;;24.41;31.20;102727.94;6337022;22;20006;-78
2022/04/30 07:39:13;;;;;;;9.65;5.40;;;;;;;23.93;32.85;102715.16;6329888;22;20015;-79
2022/04/30 07:41:39;;;;;;;6.27;5.03;;;;;;;24.60;32.03;102715.53;6336959;22;20367;-79
2022/04/30 07:44:04;;;;;;;8.63;4.68;;;;;;;25.02;30.61;102731.97;6336746;22;20042;-78
2022/04/30 07:46:30;;;;;;;8.23;5.00;;;;;;;24.62;30.09;102707.88;6302257;22;20006;-79
2022/04/30 07:48:55;;;;;;;7.15;5.00;;;;;;;25.58;29.96;102710.28;6336700;22;20010;-78
2022/04/30 07:51:34;;;;;;;8.60;5.33;;;;;;;25.14;29.58;102714.50;6329678;22;20006;-77
2022/04/30 07:54:02;;;;;;;10.15;4.68;;;;;;;24.91;30.09;102724.75;6308959;22;20268;-78
2022/04/30 07:56:28;;;;;;;7.25;4.78;;;;;;;24.02;30.73;102714.44;6329779;22;20459;-78
2022/04/30 07:58:53;;;;;;;6.63;4.50;;;;;;;24.00;31.43;102724.81;6308989;22;20010;-77
2022/04/30 08:01:18;;;;;;;5.27;4.77;;;;;;;23.74;32.36;102717.44;6336770;22;20015;-77
2022/04/30 08:03:44;;;;;;;7.73;4.73;;;;;;;24.30;31.32;102712.53;6330004;22;20249;-78
2022/04/30 08:06:10;;;;;;;6.65;4.13;;;;;;;25.60;30.08;102705.38;6308991;22;20247;-78
2022/04/30 08:08:35;;;;;;;7.78;5.00;;;;;;;25.17;29.58;102703.84;6329773;22;20042;-78
2022/04/30 08:11:00;;;;;;;13.10;5.03;;;;;;;24.74;29.84;102707.66;6336582;22;20006;-78
2022/04/30 08:13:26;;;;;;;7.43;4.97;;;;;;;23.26;31.66;102708.09;6333635;22;20311;-78
2022/04/30 08:15:52;;;;;;;8.95;4.72;;;;;;;21.91;34.58;102703.72;6332881;22;20313;-78
2022/04/30 08:18:17;;;;;;;8.82;5.00;;;;;;;21.05;35.30;102708.19;6336740;22;20009;-78
2022/04/30 08:20:43;;;;;;;9.05;5.10;;;;;;;20.52;36.69;102703.69;6302305;22;20080;-78
2022/04/30 08:23:08;;;;;;;8.05;4.70;;;;;;;21.01;36.29;102709.75;6336611;22;20027;-78
2022/04/30 08:25:35;;;;;;;6.10;4.45;;;;;;;22.66;34.53;102702.56;6329576;22;20041;-78
2022/04/30 08:28:01;;;;;;;9.35;4.72;;;;;;;23.58;31.78;102693.75;6336670;22;20002;-78
2022/04/30 08:30:27;;;;;;;7.40;4.85;;;;;;;22.23;33.96;102704.03;6336787;22;20011;-78
2022/04/30 08:32:52;;;;;;;5.85;4.15;;;;;;;20.89;35.15;102703.50;6329759;22;20053;-77
2022/04/30 08:35:17;;;;;;;8.37;4.60;;;;;;;19.91;37.15;102701.28;6336663;22;20006;-78
2022/04/30 08:37:42;;;;;;;7.60;5.00;;;;;;;19.86;38.02;102688.41;6329598;22;20249;-78
2022/04/30 08:40:08;;;;;;;8.17;4.63;;;;;;;20.49;36.63;102690.59;6336597;22;20241;-78
2022/04/30 08:42:33;;;;;;;6.60;4.88;;;;;;;21.73;35.25;102695.75;6305975;22;20252;-78
2022/04/30 08:45:03;;;;;;;8.88;5.25;;;;;;;21.57;35.54;102695.44;6332663;22;20423;-77
2022/04/30 08:47:37;;;;;;;7.78;5.80;;;;;;;19.72;38.28;102692.38;6336370;22;20002;-78
2022/04/30 08:50:03;;;;;;;7.45;5.30;;;;;;;18.28;42.05;102682.78;6329370;22;20014;-79
2022/04/30 08:52:28;;;;;;;10.73;5.43;;;;;;;17.27;44.56;102688.91;6336289;22;20435;-78
2022/04/30 08:54:53;;;;;;;6.28;5.40;;;;;;;16.55;47.30;102689.88;6329453;22;20014;-77
2022/04/30 08:57:20;;;;;;;9.52;5.72;;;;;;;15.91;49.93;102686.91;6335876;22;20042;-77
2022/04/30 08:59:46;;;;;;;10.85;5.25;;;;;;;16.03;48.54;102686.06;6336268;22;20419;-78
2022/04/30 09:02:11;;;;;;;9.68;5.72;;;;;;;15.63;50.70;102687.03;6329572;22;20030;-78
2022/04/30 09:04:46;;;;;;;12.45;5.78;;;;;;;15.50;51.37;102690.44;6336347;22;20002;-78
2022/04/30 09:07:14;;;;;;;12.18;5.88;;;;;;;15.63;52.55;102685.16;6329350;22;20406;-77
2022/04/30 09:09:40;;;;;;;10.90;5.80;;;;;;;15.69;51.98;102689.72;6336118;22;20373;-77
2022/04/30 09:12:08;;;;;;;7.45;5.43;;;;;;;15.61;51.53;102684.53;6329307;22;20038;-78
2022/04/30 09:14:33;;;;;;;9.18;6.25;;;;;;;15.32;51.92;102682.06;6336193;22;20352;-77
2022/04/30 09:17:06;;;;;;;10.05;5.90;;;;;;;15.38;51.26;102687.50;6336070;22;20037;-78
2022/04/30 09:19:33;;;;;;;9.93;5.63;;;;;;;15.26;51.58;102672.09;6329260;22;20010;-78
2022/04/30 09:21:59;;;;;;;8.98;5.78;;;;;;;15.28;51.35;102665.47;6336185;22;20041;-77
2022/04/30 09:24:25;;;;;;;8.05;5.70;;;;;;;15.37;51.49;102679.63;6329187;22;20335;-77
2022/04/30 09:26:52;;;;;;;11.15;6.60;;;;;;;15.51;49.73;102670.53;6336054;22;20006;-78
2022/04/30 09:29:22;;;;;;;8.90;5.38;;;;;;;15.51;49.74;102670.53;6329059;22;20423;-78
2022/04/30 09:31:52;;;;;;;8.63;5.43;;;;;;;15.39;50.48;102680.25;6308312;22;20011;-77
2022/04/30 09:39:48;;;;;;;7.65;5.75;;;;;;;15.84;49.47;102665.28;6336115;22;20110;-78
2022/04/30 09:42:13;;;;;;;9.48;5.70;;;;;;;15.68;49.59;102662.97;6329035;22;20038;-78
2022/04/30 09:44:38;;;;;;;8.07;5.80;;;;;;;15.56;50.68;102661.84;6335953;22;20003;-77
2022/04/30 09:47:07;;;;;;;7.47;5.10;;;;;;;15.63;51.73;102663.56;6301472;22;20768;-78
2022/04/30 09:55:05;;;;;;;6.80;4.95;;;;;;;16.33;47.48;102646.03;6335720;22;20440;-78
2022/04/30 09:57:38;;;;;;;6.80;5.47;;;;;;;16.49;47.22;102647.50;6335601;22;20006;-78
2022/04/30 10:00:04;;;;;;;;;;;;;;;17.22;45.26;102650.88;6329389;22;20011;-78
2022/04/30 10:02:31;;;;;;;10.35;5.15;;;;;;;17.58;43.45;102644.88;6335636;22;19918;-78
2022/04/30 10:04:57;;;;;;;8.98;4.97;;;;;;;18.06;41.79;102654.41;6301405;22;20414;-78
2022/04/30 10:07:24;;;;;;;7.15;4.13;;;;;;;18.09;41.29;102648.56;6335940;22;20014;-78
2022/04/30 10:10:19;;;;;;;6.85;4.47;;;;;;;18.15;41.61;102648.50;6330911;22;20018;-78
2022/04/30 10:13:02;;;;;;;8.50;4.07;;;;;;;18.43;40.76;102631.81;6337384;22;20034;-77
2022/04/30 10:15:37;;;;;;;9.45;4.45;;;;;;;18.52;39.77;102637.78;6334211;22;20148;-78
2022/04/30 10:18:07;;;;;;;4.85;4.35;;;;;;;18.63;39.31;102637.06;6335635;22;20357;-77
2022/04/30 10:20:34;;;;;;;9.07;4.82;;;;;;;18.58;39.88;102631.47;6337729;22;20107;-78
2022/04/30 10:23:00;;;;;;;7.63;4.55;;;;;;;18.90;39.20;102626.78;6330250;22;20011;-78
2022/04/30 10:25:48;;;;;;;7.70;4.30;;;;;;;19.17;39.02;102624.59;6337101;22;20471;-77
2022/04/30 10:28:19;;;;;;;6.25;4.72;;;;;;;19.07;38.47;102627.00;6330233;22;20444;-78
2022/04/30 10:30:46;;;;;;;9.07;5.03;;;;;;;19.31;36.55;102615.22;6337748;22;20007;-78
2022/04/30 10:33:11;;;;;;;10.40;5.00;;;;;;;19.53;36.29;102622.88;6330658;22;20037;-78
2022/04/30 10:39:09;;;;;;;7.00;3.80;;;;;;;19.73;35.67;102618.03;6330419;22;20407;-78
2022/04/30 10:42:01;;;;;;;6.20;4.20;;;;;;;20.04;36.03;102609.59;6309447;22;20450;-77
2022/04/30 10:44:31;;;;;;;4.82;4.28;;;;;;;20.19;34.25;102616.44;6330931;22;20117;-78
2022/04/30 10:47:14;;;;;;;5.65;3.92;;;;;;;20.47;34.56;102607.63;6332873;22;20117;-78
2022/04/30 10:49:39;;;;;;;8.88;4.35;;;;;;;21.40;32.17;102609.38;6336912;22;20007;-78
2022/04/30 10:52:05;;;;;;;8.10;4.15;;;;;;;21.65;30.67;102605.19;6330087;22;20011;-77
2022/04/30 10:54:33;;;;;;;4.32;3.90;;;;;;;22.16;30.96;102614.28;6309180;22;20010;-78
2022/04/30 10:57:01;;;;;;;7.38;4.78;;;;;;;22.45;30.32;102604.09;6330067;22;20063;-77
2022/04/30 10:59:26;;;;;;;5.97;4.90;;;;;;;22.43;33.03;102589.88;6309292;22;20003;-77
2022/04/30 11:01:52;;;;;;;6.17;4.53;;;;;;;22.70;31.55;102595.44;6335730;22;20128;-77
2022/04/30 11:04:21;;;;;;;5.03;4.13;;;;;;;22.64;30.11;102595.63;6331417;22;20250;-77
2022/04/30 11:06:51;;;;;;;5.40;4.10;;;;;;;23.43;28.76;102579.69;6336936;22;20035;-78
2022/04/30 11:09:17;;;;;;;4.63;3.67;;;;;;;25.18;25.23;102587.75;6330256;22;20015;-78
2022/04/30 11:11:46;;;;;;;5.75;4.18;;;;;;;26.26;25.11;102578.47;6336804;22;20037;-78
2022/04/30 11:14:12;;;;;;;5.63;3.97;;;;;;;26.04;23.29;102576.06;6330260;22;20023;-78
2022/04/30 11:16:45;;;;;;;7.47;4.38;;;;;;;25.18;25.36;102582.28;6336912;22;20003;-78
2022/04/30 11:19:12;;;;;;;6.72;4.57;;;;;;;24.45;25.69;102572.34;6336764;22;20002;-78
2022/04/30 11:21:43;;;;;;;6.78;4.72;;;;;;;24.00;26.24;102565.47;6329524;22;20067;-78
2022/04/30 11:24:10;;;;;;;6.53;4.50;;;;;;;23.56;28.13;102570.28;6336896;22;20006;-78
2022/04/30 11:26:36;;;;;;;6.72;4.82;;;;;;;23.24;28.65;102557.38;6330109;22;20018;-77
2022/04/30 11:29:15;;;;;;;6.40;4.72;;;;;;;24.28;26.48;102559.66;6336797;22;20055;-77
2022/04/30 11:31:43;;;;;;;6.25;4.03;;;;;;;24.98;26.19;102568.47;6302715;22;20011;-77
2022/04/30 11:34:15;;;;;;;6.47;4.50;;;;;;;24.37;26.09;102555.34;6336951;22;20006;-78
2022/04/30 11:40:07;;;;;;;6.00;5.05;;;;;;;20.64;31.76;102552.31;6336966;22;20385;-77
2022/04/30 11:42:32;;;;;;;6.18;5.10;;;;;;;20.04;33.29;102557.16;6334306;22;20014;-78
2022/04/30 11:44:58;;;;;;;5.72;4.78;;;;;;;19.61;33.79;102558.25;6305029;22;20328;-78
2022/04/30 11:47:24;;;;;;;10.50;5.17;;;;;;;19.59;34.66;102554.13;6336612;22;20072;-77
2022/04/30 11:49:49;;;;;;;7.97;5.20;;;;;;;19.00;36.14;102551.16;6302723;22;20645;-77
2022/04/30 11:52:15;;;;;;;8.23;5.53;;;;;;;18.08;38.53;102538.59;6336736;22;20030;-78
2022/04/30 11:54:41;;;;;;;9.88;5.53;;;;;;;17.45;40.39;102541.34;6329846;22;20039;-78
2022/04/30 11:57:09;;;;;;;8.63;5.65;;;;;;;17.09;42.99;102550.09;6336743;22;20003;-78
2022/04/30 11:59:40;;;;;;;9.90;5.55;;;;;;;16.62;43.84;102541.28;6336679;22;20320;-77
2022/04/30 12:02:08;;;;;;;8.57;5.32;;;;;;;16.40;44.58;102546.94;6329920;22;20014;-78
2022/04/30 12:04:35;;;;;;;8.90;5.68;;;;;;;16.15;45.49;102545.09;6336730;22;20195;-78